Aérodrome :







RETROUVEZ-NOUS SUR...

 
LOGIN :

S'inscrire | Disclaimer

   EN    FR    IT 

 









Légende :    VFR   VFR Marginal   IFR   IFR Intensif   IFR Très Intensif
Visi : 
Plafond : 
>= 8 km
>= 3000ft
5 à 8 km
1000 à 3000 ft
1500m à 5 km
500 à 1000 ft
800 à 1500m
200 à 500 ft
< 800m
< 200 ft
Symboles :   Orages  Brouillard  Fortes neiges  Fortes précipitations  Vent > 20 kt






- Altitude de l'aérodrome : 160 ft
- Code IATA : YYR


CYYR - Goose Bay

DERNIER METAR :
  • 131700Z 34011KT 3SM -SN OVC011 M03/M04 A2912 RMK SF8 SLP866

METARs EXPIRÉS :
  • 131600Z 36010G15KT 3SM -FZRA -SN OVC012 M03/M05 A2914 RMK SF8 SLP872
  • 131545Z 36012KT 3SM -FZRA -SN OVC012 M03/M05 A2915 RMK SF8 SLP876
  • 131507Z CCA 36014KT 2SM -FZRA -SN FEW008 OVC012 M04/M05 A2918 RMK SN2SF1SF6 PRESFR SLP886

TAF AMD TAF CYYR
Valide du 13 à 16h jusqu'au 14 à 12h UTC


131612Z 1316/1412 36015G25KT 1SM -SN VV004
TEMPO 1316/1318 3SM -FZRA BR OVC020
BECMG 1316/1318 32020G35KT
FM131800 32020G35KT 1/2SM -SN BLSN VV002
TEMPO 1318/1324 1SM -SHSN BLSN BKN010 OVC020
BECMG 1319/1321 31025G40KT
FM140000 31025G40KT 1/2SM BLSN VV002
TEMPO 1400/1406 1SM -SN BLSN BKN030
FM140600 29020G35KT 1/2SM BLSN BKN030
TEMPO 1406/1412 2SM BLSN SCT030 RMK NXT FCST BY 131800Z



MET'MAP, la Météo Aéronautique d'un coup d'oeil ! - Copyright ORBIFLY Décembre 2007 - Disclaimer

ORBIFLY MET'MAP TEAM :

Programmation & Développement : Alexandra Zaïnal
Conception & Développement : Baudouin d'Aumeries
Co-Programmation & Développement : Marc-Olivier Méhu
Soutien technique & logistique : Manuel Goepfert

Contact : metmap@orbifly.com




SOURCES & CREDITS :

   NOAA